createdAt,value
2023-04-02T00:00:14.390Z,19.60
2023-04-02T00:03:05.283Z,18.60
2023-04-02T00:05:51.792Z,19.50
2023-04-02T00:08:38.369Z,18.90
2023-04-02T00:11:08.463Z,18.00
2023-04-02T00:13:43.492Z,17.60
2023-04-02T00:16:16.872Z,18.10
2023-04-02T00:18:50.281Z,17.80
2023-04-02T00:21:24.177Z,20.00
2023-04-02T00:23:54.740Z,18.50
2023-04-02T00:26:28.953Z,17.00
2023-04-02T00:28:58.265Z,17.20
2023-04-02T00:31:27.535Z,18.70
2023-04-02T00:33:57.041Z,20.50
2023-04-02T00:36:29.479Z,19.40
2023-04-02T00:39:00.053Z,20.00
2023-04-02T00:41:35.475Z,19.90
2023-04-02T00:44:05.800Z,21.10
2023-04-02T00:46:46.189Z,18.60
2023-04-02T00:49:22.506Z,21.50
2023-04-02T00:51:54.982Z,18.10
2023-04-02T00:54:27.590Z,18.80
2023-04-02T00:56:58.367Z,21.10
2023-04-02T00:59:31.023Z,21.60
2023-04-02T01:02:21.885Z,22.20
2023-04-02T01:04:54.140Z,22.40
2023-04-02T01:07:34.875Z,21.30
2023-04-02T01:10:25.786Z,21.70
2023-04-02T01:13:07.923Z,18.20
2023-04-02T01:15:42.043Z,20.30
2023-04-02T01:18:30.600Z,20.70
2023-04-02T01:21:15.449Z,20.80
2023-04-02T01:23:58.011Z,20.00
2023-04-02T01:26:47.315Z,20.80
2023-04-02T01:29:19.269Z,22.80
2023-04-02T01:31:51.357Z,19.30
2023-04-02T01:37:02.203Z,17.50
2023-04-02T01:39:40.643Z,15.60
2023-04-02T01:42:15.914Z,19.30
2023-04-02T01:44:48.689Z,18.30
2023-04-02T01:47:19.519Z,17.30
2023-04-02T01:49:48.395Z,16.20
2023-04-02T01:52:25.987Z,19.10
2023-04-02T01:54:56.398Z,16.30
2023-04-02T01:57:26.788Z,16.30
2023-04-02T01:59:55.760Z,15.50
2023-04-02T02:02:24.867Z,17.10
2023-04-02T02:04:53.915Z,15.90
2023-04-02T02:07:23.540Z,15.00
2023-04-02T02:09:54.904Z,14.20
2023-04-02T02:12:23.934Z,16.60
2023-04-02T02:14:52.794Z,16.80
2023-04-02T02:17:33.170Z,13.90
2023-04-02T02:20:06.270Z,13.60
2023-04-02T02:22:38.222Z,13.30
2023-04-02T02:25:13.441Z,13.50
2023-04-02T02:27:49.763Z,12.90
2023-04-02T02:30:24.290Z,11.40
2023-04-02T02:33:00.428Z,12.30
2023-04-02T02:35:35.185Z,12.40
2023-04-02T02:38:35.248Z,10.00
2023-04-02T02:44:03.567Z,10.60
2023-04-02T02:46:34.119Z,11.40
2023-04-02T02:49:04.760Z,9.10
2023-04-02T02:51:44.102Z,10.40
2023-04-02T02:54:15.144Z,11.00
2023-04-02T02:56:47.509Z,10.60
2023-04-02T02:59:17.946Z,11.00
2023-04-02T03:01:47.665Z,10.60
2023-04-02T03:04:22.401Z,9.10
2023-04-02T03:06:53.472Z,8.10
2023-04-02T03:09:33.706Z,10.30
2023-04-02T03:12:13.724Z,10.00
2023-04-02T03:14:46.822Z,8.80
2023-04-02T03:17:20.865Z,7.90
2023-04-02T03:19:55.942Z,7.70
2023-04-02T03:22:31.473Z,8.70
2023-04-02T03:25:06.382Z,7.30
2023-04-02T03:27:39.797Z,9.20
2023-04-02T03:30:26.490Z,8.00
2023-04-02T03:33:01.595Z,8.00
2023-04-02T03:35:38.327Z,9.10
2023-04-02T03:38:14.966Z,8.90
2023-04-02T03:40:55.294Z,8.10
2023-04-02T03:43:26.823Z,8.60
2023-04-02T03:46:02.939Z,8.00
2023-04-02T03:48:38.648Z,6.90
2023-04-02T03:51:14.399Z,7.20
2023-04-02T03:53:44.835Z,7.60
2023-04-02T03:56:28.092Z,6.80
2023-04-02T03:59:06.691Z,7.00
2023-04-02T04:01:42.258Z,8.00
2023-04-02T04:04:16.040Z,8.00
2023-04-02T04:06:48.070Z,5.80
2023-04-02T04:09:24.081Z,8.00
2023-04-02T04:11:59.889Z,5.20
2023-04-02T04:14:32.506Z,7.30
2023-04-02T04:17:13.297Z,5.70
2023-04-02T04:19:45.961Z,6.20
2023-04-02T04:22:19.587Z,7.10
2023-04-02T04:24:50.580Z,7.50
2023-04-02T04:27:34.043Z,5.60
2023-04-02T04:30:07.038Z,5.90
2023-04-02T04:32:49.514Z,4.50
2023-04-02T04:35:27.332Z,5.70
2023-04-02T04:37:59.831Z,4.20
2023-04-02T04:40:32.674Z,3.90
2023-04-02T04:43:05.417Z,3.80
2023-04-02T04:45:43.815Z,3.40
2023-04-02T04:48:19.085Z,4.10
2023-04-02T04:50:53.401Z,5.20
2023-04-02T04:53:24.928Z,3.50
2023-04-02T04:58:35.402Z,2.70
2023-04-02T05:01:11.812Z,3.60
2023-04-02T05:03:47.338Z,2.90
2023-04-02T05:06:32.536Z,3.60
2023-04-02T05:09:07.694Z,2.40
2023-04-02T05:11:42.435Z,2.60
2023-04-02T05:14:21.408Z,3.60
2023-04-02T05:16:56.179Z,2.60
2023-04-02T05:19:34.358Z,3.00
2023-04-02T05:22:13.660Z,3.40
2023-04-02T05:24:51.779Z,2.10
2023-04-02T05:27:29.289Z,3.10
2023-04-02T05:30:05.484Z,3.80
2023-04-02T05:32:40.703Z,3.80
2023-04-02T05:35:16.607Z,3.70
2023-04-02T05:37:46.449Z,4.60
2023-04-02T05:40:23.339Z,5.90
2023-04-02T05:42:52.631Z,5.30
2023-04-02T05:45:28.576Z,4.70
2023-04-02T05:48:02.112Z,3.40
2023-04-02T05:50:40.215Z,2.60
2023-04-02T05:53:19.980Z,2.70
2023-04-02T05:55:57.838Z,2.30
2023-04-02T05:58:36.708Z,3.60
2023-04-02T06:01:33.410Z,2.30
2023-04-02T06:04:13.586Z,2.20
2023-04-02T06:06:48.966Z,2.10
2023-04-02T06:09:24.297Z,1.80
2023-04-02T06:12:02.168Z,1.50
2023-04-02T06:14:31.495Z,2.20
2023-04-02T06:17:00.531Z,1.70
2023-04-02T06:19:33.808Z,2.80
2023-04-02T06:22:16.014Z,2.30
2023-04-02T06:27:19.559Z,3.00
2023-04-02T06:29:52.369Z,3.00
2023-04-02T06:32:26.885Z,3.20
2023-04-02T06:34:56.301Z,2.40
2023-04-02T06:37:29.816Z,2.90
2023-04-02T06:40:25.726Z,2.80
2023-04-02T06:42:59.216Z,4.00
2023-04-02T06:45:41.815Z,3.80
2023-04-02T06:48:25.180Z,4.90
2023-04-02T06:51:02.059Z,3.60
2023-04-02T06:53:35.653Z,3.00
2023-04-02T06:56:12.995Z,4.50
2023-04-02T06:58:42.662Z,5.50
2023-04-02T07:01:17.805Z,5.90
2023-04-02T07:03:47.031Z,7.50
2023-04-02T07:06:26.736Z,9.10
2023-04-02T07:08:59.092Z,8.90
2023-04-02T07:11:28.232Z,9.20
2023-04-02T07:13:59.968Z,9.80
2023-04-02T07:16:31.135Z,10.10
2023-04-02T07:19:00.303Z,14.60
2023-04-02T07:21:32.512Z,23.20
2023-04-02T07:24:01.325Z,36.70
2023-04-02T07:26:30.403Z,28.00
2023-04-02T07:28:59.454Z,207.90
2023-04-02T07:31:29.016Z,124.90
2023-04-02T07:33:59.658Z,174.00
2023-04-02T07:36:29.657Z,17.60
2023-04-02T07:38:58.703Z,143.60
2023-04-02T07:41:27.687Z,43.90
2023-04-02T07:43:56.349Z,35.00
2023-04-02T07:46:25.340Z,41.70
2023-04-02T07:48:54.218Z,48.40
2023-04-02T07:51:25.293Z,48.10
2023-04-02T07:53:55.297Z,113.60
2023-04-02T07:56:25.302Z,22.70
2023-04-02T07:58:54.352Z,50.00
2023-04-02T08:01:25.711Z,19.50
2023-04-02T08:03:56.515Z,61.40
2023-04-02T08:06:26.053Z,15.70
2023-04-02T08:08:55.419Z,12.50
2023-04-02T08:11:24.478Z,10.50
2023-04-02T08:13:53.481Z,9.80
2023-04-02T08:16:24.674Z,8.10
2023-04-02T08:18:53.573Z,8.10
2023-04-02T08:21:22.406Z,8.60
2023-04-02T08:23:51.397Z,5.50
2023-04-02T08:26:20.392Z,7.80
2023-04-02T08:28:49.200Z,6.40
2023-04-02T08:31:18.504Z,7.00
2023-04-02T08:33:47.249Z,7.50
2023-04-02T08:36:17.659Z,6.20
2023-04-02T08:38:46.989Z,11.40
2023-04-02T08:41:22.533Z,8.50
2023-04-02T08:44:07.718Z,14.30
2023-04-02T08:46:43.478Z,8.70
2023-04-02T08:49:16.971Z,6.60
2023-04-02T08:51:48.544Z,7.20
2023-04-02T08:54:24.354Z,6.70
2023-04-02T08:56:59.421Z,6.90
2023-04-02T08:59:33.638Z,7.90
2023-04-02T09:02:17.464Z,7.20
2023-04-02T09:04:46.933Z,6.10
2023-04-02T09:07:17.377Z,4.60
2023-04-02T09:09:49.630Z,5.70
2023-04-02T09:12:23.647Z,5.20
2023-04-02T09:15:05.654Z,5.10
2023-04-02T09:17:42.654Z,6.50
2023-04-02T09:20:18.576Z,6.80
2023-04-02T09:22:50.889Z,15.40
2023-04-02T09:25:22.354Z,7.60
2023-04-02T09:27:53.120Z,6.80
2023-04-02T09:30:33.011Z,4.60
2023-04-02T09:33:06.866Z,7.40
2023-04-02T09:35:53.181Z,7.50
2023-04-02T09:38:24.264Z,7.20
2023-04-02T09:40:59.227Z,7.20
2023-04-02T09:43:29.654Z,6.90
2023-04-02T09:46:01.484Z,4.00
2023-04-02T09:48:32.619Z,3.50
2023-04-02T09:51:16.093Z,4.90
2023-04-02T09:53:47.223Z,5.40
2023-04-02T09:56:19.001Z,5.90
2023-04-02T09:59:03.600Z,7.90
2023-04-02T10:01:34.097Z,6.80
2023-04-02T10:04:06.754Z,5.80
2023-04-02T10:06:35.839Z,18.90
2023-04-02T10:09:25.715Z,12.70
2023-04-02T10:11:55.639Z,10.20
2023-04-02T10:14:28.180Z,8.90
2023-04-02T10:17:01.419Z,9.50
2023-04-02T10:19:34.412Z,10.30
2023-04-02T10:22:08.965Z,7.20
2023-04-02T10:24:37.812Z,9.70
2023-04-02T10:27:18.060Z,9.20
2023-04-02T10:30:14.184Z,5.90
2023-04-02T10:32:49.078Z,4.20
2023-04-02T10:35:26.990Z,3.70
2023-04-02T10:38:13.259Z,4.60
2023-04-02T10:40:46.492Z,4.40
2023-04-02T10:43:43.722Z,5.80
2023-04-02T10:46:21.378Z,6.00
2023-04-02T10:49:00.472Z,6.80
2023-04-02T10:51:37.060Z,7.10
2023-04-02T10:54:22.169Z,14.60
2023-04-02T10:56:52.922Z,9.10
2023-04-02T10:59:27.517Z,6.40
2023-04-02T11:02:00.303Z,8.70
2023-04-02T11:04:36.597Z,6.40
2023-04-02T11:07:15.014Z,4.90
2023-04-02T11:09:49.397Z,6.70
2023-04-02T11:12:25.236Z,5.50
2023-04-02T11:14:55.959Z,7.00
2023-04-02T11:17:25.279Z,5.80
2023-04-02T11:19:55.686Z,19.20
2023-04-02T11:22:25.261Z,16.80
2023-04-02T11:24:56.000Z,91.60
2023-04-02T11:27:27.815Z,140.80
2023-04-02T11:30:05.528Z,32.60
2023-04-02T11:32:41.981Z,72.20
2023-04-02T11:35:35.792Z,105.10
2023-04-02T11:38:39.161Z,18.80
2023-04-02T11:41:07.986Z,14.50
2023-04-02T11:43:59.777Z,6.70
2023-04-02T11:46:45.889Z,10.30
2023-04-02T11:49:56.346Z,9.20
2023-04-02T11:52:28.760Z,20.90
2023-04-02T11:55:23.751Z,11.70
2023-04-02T11:58:01.771Z,8.50
2023-04-02T12:01:11.908Z,8.70
2023-04-02T12:03:58.123Z,20.10
2023-04-02T12:06:39.221Z,45.50
2023-04-02T12:09:19.165Z,15.50
2023-04-02T12:11:51.926Z,14.40
2023-04-02T12:14:46.201Z,8.70
2023-04-02T12:17:24.773Z,11.50
2023-04-02T12:19:56.197Z,7.70
2023-04-02T12:22:27.569Z,9.20
2023-04-02T12:24:59.631Z,11.90
2023-04-02T12:30:13.135Z,9.80
2023-04-02T12:32:42.708Z,7.50
2023-04-02T12:35:29.283Z,8.30
2023-04-02T12:37:58.437Z,6.40
2023-04-02T12:40:29.153Z,7.90
2023-04-02T12:42:58.730Z,18.20
2023-04-02T12:45:31.799Z,19.10
2023-04-02T12:48:03.881Z,10.30
2023-04-02T12:50:34.229Z,10.60
2023-04-02T12:53:03.718Z,7.70
2023-04-02T12:55:32.987Z,6.90
2023-04-02T12:58:02.370Z,9.60
2023-04-02T13:00:35.874Z,7.60
2023-04-02T13:03:22.076Z,14.20
2023-04-02T13:05:56.759Z,11.10
2023-04-02T13:08:29.150Z,11.30
2023-04-02T13:11:00.892Z,31.60
2023-04-02T13:13:35.363Z,13.30
2023-04-02T13:16:07.974Z,14.70
2023-04-02T13:18:38.410Z,117.30
2023-04-02T13:21:24.034Z,63.90
2023-04-02T13:23:55.929Z,154.30
2023-04-02T13:26:27.007Z,61.40
2023-04-02T13:29:01.448Z,16.50
2023-04-02T13:31:32.006Z,19.80
2023-04-02T13:34:01.659Z,15.50
2023-04-02T13:36:30.618Z,17.40
2023-04-02T13:38:59.460Z,136.50
2023-04-02T13:41:30.443Z,49.70
2023-04-02T13:44:02.859Z,125.80
2023-04-02T13:46:33.708Z,70.30
2023-04-02T13:49:02.514Z,65.60
2023-04-02T13:51:37.768Z,39.70
2023-04-02T13:54:17.088Z,21.60
2023-04-02T13:56:46.246Z,24.00
2023-04-02T13:59:15.665Z,19.00
2023-04-02T14:01:46.959Z,16.80
2023-04-02T14:04:20.053Z,18.20
2023-04-02T14:07:26.407Z,10.70
2023-04-02T14:10:21.472Z,6.00
2023-04-02T14:13:08.886Z,8.10
2023-04-02T14:15:52.896Z,5.00
2023-04-02T14:18:38.842Z,4.80
2023-04-02T14:21:17.478Z,5.40
2023-04-02T14:23:59.104Z,6.20
2023-04-02T14:26:39.017Z,7.30
2023-04-02T14:29:13.287Z,6.90
2023-04-02T14:31:46.982Z,4.30
2023-04-02T14:34:22.918Z,6.20
2023-04-02T14:37:02.506Z,5.30
2023-04-02T14:39:42.564Z,5.70
2023-04-02T14:42:16.866Z,3.80
2023-04-02T14:44:51.572Z,4.60
2023-04-02T14:47:25.627Z,5.20
2023-04-02T14:50:02.716Z,4.60
2023-04-02T14:52:35.053Z,3.70
2023-04-02T14:55:10.335Z,4.80
2023-04-02T14:57:41.853Z,4.70
2023-04-02T15:00:27.284Z,7.00
2023-04-02T15:03:03.097Z,5.20
2023-04-02T15:05:40.884Z,5.40
2023-04-02T15:08:19.809Z,7.90
2023-04-02T15:11:01.997Z,4.90
2023-04-02T15:13:38.535Z,5.40
2023-04-02T15:16:13.232Z,7.80
2023-04-02T15:18:42.055Z,6.10
2023-04-02T15:21:30.151Z,3.70
2023-04-02T15:24:07.692Z,5.60
2023-04-02T15:26:48.334Z,3.90
2023-04-02T15:29:29.561Z,3.50
2023-04-02T15:32:07.908Z,9.40
2023-04-02T15:34:42.777Z,3.70
2023-04-02T15:37:23.743Z,14.80
2023-04-02T15:40:29.722Z,5.00
2023-04-02T15:43:06.783Z,3.00
2023-04-02T15:46:08.313Z,3.40
2023-04-02T15:49:07.843Z,4.40
2023-04-02T15:51:50.130Z,6.70
2023-04-02T15:57:26.543Z,9.90
2023-04-02T16:00:26.056Z,4.50
2023-04-02T16:03:06.333Z,3.00
2023-04-02T16:05:42.153Z,14.10
2023-04-02T16:08:37.260Z,13.20
2023-04-02T16:11:17.614Z,11.30
2023-04-02T16:13:47.858Z,7.10
2023-04-02T16:16:41.717Z,4.40
2023-04-02T16:19:22.618Z,16.70
2023-04-02T16:22:03.443Z,6.70
2023-04-02T16:24:32.214Z,5.70
2023-04-02T16:27:17.728Z,4.20
2023-04-02T16:30:02.905Z,5.50
2023-04-02T16:32:52.528Z,4.90
2023-04-02T16:35:42.718Z,5.70
2023-04-02T16:38:31.296Z,7.40
2023-04-02T16:41:12.789Z,21.80
2023-04-02T16:43:50.450Z,131.40
2023-04-02T16:49:07.813Z,159.70
2023-04-02T16:51:46.972Z,125.20
2023-04-02T16:54:24.226Z,283.20
2023-04-02T16:57:11.422Z,472.50
2023-04-02T16:59:49.578Z,309.00
2023-04-02T17:02:31.011Z,348.20
2023-04-02T17:05:11.356Z,268.60
2023-04-02T17:07:48.393Z,103.40
2023-04-02T17:10:40.388Z,57.50
2023-04-02T17:13:29.002Z,49.10
2023-04-02T17:16:14.133Z,23.50
2023-04-02T17:18:46.105Z,65.60
2023-04-02T17:21:19.303Z,35.50
2023-04-02T17:23:56.371Z,8.60
2023-04-02T17:26:28.976Z,7.50
2023-04-02T17:29:01.289Z,9.20
2023-04-02T17:31:35.894Z,6.40
2023-04-02T17:34:14.241Z,8.50
2023-04-02T17:36:54.423Z,6.60
2023-04-02T17:39:29.448Z,5.40
2023-04-02T17:42:15.682Z,6.30
2023-04-02T17:45:01.544Z,6.10
2023-04-02T17:47:47.905Z,7.40
2023-04-02T17:50:39.372Z,6.70
2023-04-02T17:53:19.935Z,6.50
2023-04-02T17:56:33.299Z,8.00
2023-04-02T17:59:51.337Z,12.70
2023-04-02T18:02:57.751Z,6.30
2023-04-02T18:09:26.549Z,4.70
2023-04-02T18:12:05.293Z,4.00
2023-04-02T18:15:09.000Z,3.90
2023-04-02T18:17:54.565Z,5.00
2023-04-02T18:20:45.432Z,6.20
2023-04-02T18:23:49.787Z,5.80
2023-04-02T18:26:34.462Z,5.20
2023-04-02T18:32:33.670Z,4.40
2023-04-02T18:35:22.406Z,3.20
2023-04-02T18:38:36.903Z,4.00
2023-04-02T18:41:19.815Z,3.20
2023-04-02T18:44:06.508Z,4.40
2023-04-02T18:46:41.917Z,3.90
2023-04-02T18:49:26.387Z,4.40
2023-04-02T18:52:02.313Z,3.50
2023-04-02T18:54:37.236Z,3.90
2023-04-02T18:57:13.888Z,3.90
2023-04-02T19:00:05.413Z,4.70
2023-04-02T19:02:43.163Z,4.60
2023-04-02T19:05:26.413Z,5.00
2023-04-02T19:08:09.041Z,4.80
2023-04-02T19:10:42.286Z,4.00
2023-04-02T19:13:17.066Z,5.90
2023-04-02T19:16:16.939Z,6.70
2023-04-02T19:18:59.961Z,7.30
2023-04-02T19:21:37.819Z,8.30
2023-04-02T19:24:29.065Z,8.50
2023-04-02T19:27:05.865Z,9.40
2023-04-02T19:29:52.504Z,9.30
2023-04-02T19:32:33.657Z,7.30
2023-04-02T19:35:15.497Z,7.90
2023-04-02T19:37:57.058Z,9.20
2023-04-02T19:40:40.256Z,9.50
2023-04-02T19:43:12.801Z,10.00
2023-04-02T19:45:46.541Z,6.70
2023-04-02T19:48:19.492Z,7.40
2023-04-02T19:51:09.163Z,7.50
2023-04-02T19:53:39.058Z,7.70
2023-04-02T19:56:07.892Z,6.80
2023-04-02T19:58:37.051Z,6.80
2023-04-02T20:01:06.014Z,6.30
2023-04-02T20:03:35.668Z,8.00
2023-04-02T20:06:10.083Z,5.70
2023-04-02T20:08:39.209Z,6.90
2023-04-02T20:11:07.937Z,5.70
2023-04-02T20:13:36.658Z,7.00
2023-04-02T20:16:07.176Z,7.10
2023-04-02T20:18:36.897Z,5.60
2023-04-02T20:21:07.209Z,6.70
2023-04-02T20:23:37.153Z,8.10
2023-04-02T20:26:06.278Z,5.20
2023-04-02T20:28:35.125Z,5.60
2023-04-02T20:31:09.239Z,8.20
2023-04-02T20:33:38.542Z,5.70
2023-04-02T20:36:09.375Z,6.20
2023-04-02T20:38:38.386Z,6.20
2023-04-02T20:41:09.153Z,5.80
2023-04-02T20:43:39.924Z,6.10
2023-04-02T20:46:11.676Z,7.40
2023-04-02T20:48:41.153Z,5.00
2023-04-02T20:51:13.890Z,5.10
2023-04-02T20:53:42.627Z,3.80
2023-04-02T20:56:13.101Z,5.20
2023-04-02T20:58:42.719Z,3.60
2023-04-02T21:01:15.639Z,4.40
2023-04-02T21:03:44.905Z,5.00
2023-04-02T21:06:14.955Z,3.70
2023-04-02T21:08:44.331Z,4.10
2023-04-02T21:11:13.148Z,3.80
2023-04-02T21:13:43.404Z,4.10
2023-04-02T21:16:15.833Z,3.50
2023-04-02T21:18:45.343Z,4.40
2023-04-02T21:21:14.943Z,4.50
2023-04-02T21:23:45.373Z,3.40
2023-04-02T21:26:16.146Z,3.70
2023-04-02T21:28:45.654Z,3.00
2023-04-02T21:31:15.788Z,2.80
2023-04-02T21:33:47.111Z,3.00
2023-04-02T21:36:17.964Z,2.70
2023-04-02T21:38:48.404Z,3.00
2023-04-02T21:41:19.377Z,2.50
2023-04-02T21:43:48.056Z,2.90
2023-04-02T21:46:18.319Z,3.00
2023-04-02T21:48:48.013Z,2.40
2023-04-02T21:51:19.055Z,3.00
2023-04-02T21:53:48.198Z,2.20
2023-04-02T21:56:18.474Z,2.60
2023-04-02T21:58:48.124Z,3.60
2023-04-02T22:01:26.524Z,3.50
2023-04-02T22:03:57.909Z,3.70
2023-04-02T22:06:28.676Z,3.40
2023-04-02T22:08:59.728Z,2.60
2023-04-02T22:11:30.776Z,3.90
2023-04-02T22:14:01.291Z,3.80
2023-04-02T22:16:31.455Z,2.90
2023-04-02T22:19:03.601Z,3.40
2023-04-02T22:21:32.542Z,3.10
2023-04-02T22:24:02.340Z,3.20
2023-04-02T22:26:32.570Z,2.60
2023-04-02T22:29:01.221Z,3.10
2023-04-02T22:31:32.507Z,4.00
2023-04-02T22:34:03.085Z,2.60
2023-04-02T22:36:32.600Z,3.30
2023-04-02T22:39:04.659Z,3.20
2023-04-02T22:41:33.884Z,2.90
2023-04-02T22:44:03.163Z,3.00
2023-04-02T22:46:32.164Z,3.00
2023-04-02T22:49:00.992Z,2.80
2023-04-02T22:51:31.839Z,2.50
2023-04-02T22:54:00.596Z,2.40
2023-04-02T22:56:32.462Z,3.00
2023-04-02T22:59:01.190Z,3.00
2023-04-02T23:01:32.500Z,2.90
2023-04-02T23:04:01.596Z,2.90
2023-04-02T23:06:30.446Z,2.90
2023-04-02T23:08:59.214Z,2.40
2023-04-02T23:11:28.164Z,2.80
2023-04-02T23:13:58.229Z,1.80
2023-04-02T23:16:29.237Z,2.30
2023-04-02T23:18:58.547Z,2.20
2023-04-02T23:21:27.538Z,2.30
2023-04-02T23:23:56.323Z,1.90
2023-04-02T23:26:29.980Z,2.30
2023-04-02T23:28:59.333Z,2.60
2023-04-02T23:31:28.716Z,2.70
2023-04-02T23:33:57.456Z,2.70
2023-04-02T23:36:28.263Z,2.20
2023-04-02T23:39:00.470Z,2.10
2023-04-02T23:41:30.411Z,1.80
2023-04-02T23:43:59.547Z,1.70
2023-04-02T23:46:29.208Z,2.30
2023-04-02T23:48:59.021Z,2.20
2023-04-02T23:51:28.967Z,2.50
2023-04-02T23:53:58.039Z,2.10
2023-04-02T23:56:27.069Z,3.10
2023-04-02T23:58:55.793Z,1.90
